sensor_id;sensor_type;location;lat;lon;timestamp;pressure;altitude;pressure_sealevel;temperature;humidity
75247;BME280;63844;50.042;19.224;2022-10-16T00:01:08;99194.28;;;11.77;81.43
75247;BME280;63844;50.042;19.224;2022-10-16T00:03:35;99201.48;;;11.73;83.41
75247;BME280;63844;50.042;19.224;2022-10-16T00:06:03;99199.02;;;11.70;83.50
75247;BME280;63844;50.042;19.224;2022-10-16T00:08:30;99198.39;;;11.66;82.22
75247;BME280;63844;50.042;19.224;2022-10-16T00:11:06;99200.69;;;11.66;82.87
75247;BME280;63844;50.042;19.224;2022-10-16T00:13:36;99204.82;;;11.68;82.94
75247;BME280;63844;50.042;19.224;2022-10-16T00:16:03;99211.19;;;11.66;83.20
75247;BME280;63844;50.042;19.224;2022-10-16T00:18:30;99214.48;;;11.67;82.93
75247;BME280;63844;50.042;19.224;2022-10-16T00:21:03;99219.45;;;11.67;82.89
75247;BME280;63844;50.042;19.224;2022-10-16T00:23:29;99216.27;;;11.67;82.64
75247;BME280;63844;50.042;19.224;2022-10-16T00:26:04;99216.67;;;11.63;82.26
75247;BME280;63844;50.042;19.224;2022-10-16T00:28:31;99220.83;;;11.62;82.75
75247;BME280;63844;50.042;19.224;2022-10-16T00:30:57;99222.40;;;11.60;82.16
75247;BME280;63844;50.042;19.224;2022-10-16T00:33:24;99226.01;;;11.56;83.29
75247;BME280;63844;50.042;19.224;2022-10-16T00:35:51;99223.25;;;11.55;82.27
75247;BME280;63844;50.042;19.224;2022-10-16T00:38:17;99222.52;;;11.55;82.04
75247;BME280;63844;50.042;19.224;2022-10-16T00:40:43;99226.00;;;11.56;82.83
75247;BME280;63844;50.042;19.224;2022-10-16T00:43:32;99228.17;;;11.61;82.52
75247;BME280;63844;50.042;19.224;2022-10-16T00:46:00;99227.38;;;11.68;82.75
75247;BME280;63844;50.042;19.224;2022-10-16T00:48:27;99225.15;;;11.74;82.51
75247;BME280;63844;50.042;19.224;2022-10-16T00:50:53;99226.85;;;11.70;82.34
75247;BME280;63844;50.042;19.224;2022-10-16T00:53:21;99229.93;;;11.69;82.32
75247;BME280;63844;50.042;19.224;2022-10-16T00:55:47;99233.55;;;11.68;82.45
75247;BME280;63844;50.042;19.224;2022-10-16T00:58:14;99235.58;;;11.69;82.84
75247;BME280;63844;50.042;19.224;2022-10-16T01:00:40;99230.00;;;11.68;82.36
75247;BME280;63844;50.042;19.224;2022-10-16T01:03:45;99228.42;;;11.68;82.50
75247;BME280;63844;50.042;19.224;2022-10-16T01:06:33;99232.65;;;11.66;82.50
75247;BME280;63844;50.042;19.224;2022-10-16T01:09:35;99235.82;;;11.66;82.72
75247;BME280;63844;50.042;19.224;2022-10-16T01:12:23;99236.61;;;11.65;82.73
75247;BME280;63844;50.042;19.224;2022-10-16T01:14:59;99234.64;;;11.62;83.13
75247;BME280;63844;50.042;19.224;2022-10-16T01:17:35;99237.05;;;11.63;83.25
75247;BME280;63844;50.042;19.224;2022-10-16T01:20:31;99239.75;;;11.65;83.11
75247;BME280;63844;50.042;19.224;2022-10-16T01:28:25;99243.83;;;11.68;83.43
75247;BME280;63844;50.042;19.224;2022-10-16T01:30:58;99245.09;;;11.68;83.31
75247;BME280;63844;50.042;19.224;2022-10-16T01:33:38;99241.57;;;11.65;83.09
75247;BME280;63844;50.042;19.224;2022-10-16T01:36:11;99243.16;;;11.65;82.63
75247;BME280;63844;50.042;19.224;2022-10-16T01:38:40;99239.88;;;11.64;84.19
75247;BME280;63844;50.042;19.224;2022-10-16T01:41:34;99239.27;;;11.59;83.35
75247;BME280;63844;50.042;19.224;2022-10-16T01:44:10;99232.77;;;11.58;83.93
75247;BME280;63844;50.042;19.224;2022-10-16T01:46:41;99236.23;;;11.60;83.19
75247;BME280;63844;50.042;19.224;2022-10-16T01:49:10;99239.14;;;11.64;83.24
75247;BME280;63844;50.042;19.224;2022-10-16T01:51:38;99236.95;;;11.65;83.63
75247;BME280;63844;50.042;19.224;2022-10-16T01:54:07;99239.09;;;11.65;83.52
75247;BME280;63844;50.042;19.224;2022-10-16T01:56:34;99239.36;;;11.63;84.07
75247;BME280;63844;50.042;19.224;2022-10-16T01:59:23;99243.55;;;11.62;83.25
75247;BME280;63844;50.042;19.224;2022-10-16T02:01:55;99245.52;;;11.56;83.45
75247;BME280;63844;50.042;19.224;2022-10-16T02:04:29;99245.29;;;11.52;84.25
75247;BME280;63844;50.042;19.224;2022-10-16T02:06:57;99241.14;;;11.47;84.32
75247;BME280;63844;50.042;19.224;2022-10-16T02:09:24;99235.14;;;11.47;83.81
75247;BME280;63844;50.042;19.224;2022-10-16T02:11:51;99236.80;;;11.45;84.18
75247;BME280;63844;50.042;19.224;2022-10-16T02:14:21;99240.30;;;11.43;83.89
75247;BME280;63844;50.042;19.224;2022-10-16T02:16:50;99243.40;;;11.39;85.07
75247;BME280;63844;50.042;19.224;2022-10-16T02:19:17;99248.48;;;11.38;84.42
75247;BME280;63844;50.042;19.224;2022-10-16T02:21:54;99250.78;;;11.38;84.17
75247;BME280;63844;50.042;19.224;2022-10-16T02:24:33;99255.16;;;11.33;83.94
75247;BME280;63844;50.042;19.224;2022-10-16T02:27:25;99251.81;;;11.30;84.25
75247;BME280;63844;50.042;19.224;2022-10-16T02:29:55;99256.52;;;11.20;85.59
75247;BME280;63844;50.042;19.224;2022-10-16T02:32:27;99257.45;;;11.20;84.41
75247;BME280;63844;50.042;19.224;2022-10-16T02:34:57;99261.83;;;11.21;85.15
75247;BME280;63844;50.042;19.224;2022-10-16T02:37:25;99265.75;;;11.20;83.79
75247;BME280;63844;50.042;19.224;2022-10-16T02:39:54;99268.84;;;11.19;84.45
75247;BME280;63844;50.042;19.224;2022-10-16T02:42:27;99270.34;;;11.18;84.00
75247;BME280;63844;50.042;19.224;2022-10-16T02:44:54;99269.29;;;11.17;84.20
75247;BME280;63844;50.042;19.224;2022-10-16T02:47:21;99276.70;;;11.15;84.13
75247;BME280;63844;50.042;19.224;2022-10-16T02:49:47;99272.61;;;11.12;83.60
75247;BME280;63844;50.042;19.224;2022-10-16T02:52:13;99267.49;;;11.07;84.04
75247;BME280;63844;50.042;19.224;2022-10-16T02:54:40;99263.10;;;11.00;83.41
75247;BME280;63844;50.042;19.224;2022-10-16T02:57:06;99255.99;;;10.95;83.13
75247;BME280;63844;50.042;19.224;2022-10-16T02:59:32;99253.27;;;10.88;83.01
75247;BME280;63844;50.042;19.224;2022-10-16T03:01:59;99259.77;;;10.78;84.23
75247;BME280;63844;50.042;19.224;2022-10-16T03:04:25;99256.83;;;10.71;83.60
75247;BME280;63844;50.042;19.224;2022-10-16T03:06:51;99257.99;;;10.66;83.81
75247;BME280;63844;50.042;19.224;2022-10-16T03:09:18;99264.13;;;10.62;84.47
75247;BME280;63844;50.042;19.224;2022-10-16T03:11:44;99266.56;;;10.56;84.80
75247;BME280;63844;50.042;19.224;2022-10-16T03:14:10;99268.90;;;10.53;84.81
75247;BME280;63844;50.042;19.224;2022-10-16T03:16:37;99271.91;;;10.53;84.52
75247;BME280;63844;50.042;19.224;2022-10-16T03:19:03;99274.39;;;10.53;84.72
75247;BME280;63844;50.042;19.224;2022-10-16T03:21:29;99274.20;;;10.53;84.35
75247;BME280;63844;50.042;19.224;2022-10-16T03:23:56;99275.44;;;10.53;84.58
75247;BME280;63844;50.042;19.224;2022-10-16T03:26:22;99284.55;;;10.52;83.76
75247;BME280;63844;50.042;19.224;2022-10-16T03:28:48;99286.70;;;10.42;83.28
75247;BME280;63844;50.042;19.224;2022-10-16T03:31:15;99290.73;;;10.34;84.13
75247;BME280;63844;50.042;19.224;2022-10-16T03:33:41;99298.52;;;10.31;83.99
75247;BME280;63844;50.042;19.224;2022-10-16T03:36:07;99299.59;;;10.25;84.33
75247;BME280;63844;50.042;19.224;2022-10-16T03:38:34;99303.45;;;10.20;83.63
75247;BME280;63844;50.042;19.224;2022-10-16T03:41:00;99305.73;;;10.14;84.19
75247;BME280;63844;50.042;19.224;2022-10-16T03:43:26;99302.88;;;10.05;83.99
75247;BME280;63844;50.042;19.224;2022-10-16T03:45:53;99301.55;;;10.01;84.36
75247;BME280;63844;50.042;19.224;2022-10-16T03:48:19;99298.97;;;9.99;84.31
75247;BME280;63844;50.042;19.224;2022-10-16T03:50:45;99304.13;;;9.96;84.17
75247;BME280;63844;50.042;19.224;2022-10-16T03:53:14;99306.23;;;9.93;84.14
75247;BME280;63844;50.042;19.224;2022-10-16T03:55:42;99308.36;;;9.93;83.92
75247;BME280;63844;50.042;19.224;2022-10-16T03:58:08;99309.77;;;9.87;83.68
75247;BME280;63844;50.042;19.224;2022-10-16T04:00:35;99310.91;;;9.83;83.60
75247;BME280;63844;50.042;19.224;2022-10-16T04:03:01;99313.92;;;9.76;83.60
75247;BME280;63844;50.042;19.224;2022-10-16T04:05:27;99308.13;;;9.73;83.64
75247;BME280;63844;50.042;19.224;2022-10-16T04:07:54;99313.17;;;9.68;84.31
75247;BME280;63844;50.042;19.224;2022-10-16T04:10:21;99310.77;;;9.66;83.89
75247;BME280;63844;50.042;19.224;2022-10-16T04:12:47;99310.45;;;9.63;83.60
75247;BME280;63844;50.042;19.224;2022-10-16T04:15:14;99310.58;;;9.57;83.64
75247;BME280;63844;50.042;19.224;2022-10-16T04:17:40;99308.92;;;9.55;84.41
75247;BME280;63844;50.042;19.224;2022-10-16T04:20:07;99310.44;;;9.54;85.06
75247;BME280;63844;50.042;19.224;2022-10-16T04:22:33;99309.57;;;9.54;84.11
75247;BME280;63844;50.042;19.224;2022-10-16T04:25:00;99311.63;;;9.52;84.67
75247;BME280;63844;50.042;19.224;2022-10-16T04:27:26;99311.92;;;9.47;84.68
75247;BME280;63844;50.042;19.224;2022-10-16T04:29:52;99310.98;;;9.47;84.99
75247;BME280;63844;50.042;19.224;2022-10-16T04:32:19;99316.39;;;9.46;85.32
75247;BME280;63844;50.042;19.224;2022-10-16T04:34:45;99312.16;;;9.39;85.13
75247;BME280;63844;50.042;19.224;2022-10-16T04:37:11;99318.57;;;9.38;85.40
75247;BME280;63844;50.042;19.224;2022-10-16T04:39:37;99320.54;;;9.32;86.60
75247;BME280;63844;50.042;19.224;2022-10-16T04:42:04;99318.80;;;9.31;86.10
75247;BME280;63844;50.042;19.224;2022-10-16T04:44:30;99314.85;;;9.32;85.71
75247;BME280;63844;50.042;19.224;2022-10-16T04:46:57;99318.73;;;9.32;86.14
75247;BME280;63844;50.042;19.224;2022-10-16T04:49:23;99322.41;;;9.33;85.97
75247;BME280;63844;50.042;19.224;2022-10-16T04:51:49;99323.92;;;9.34;85.26
75247;BME280;63844;50.042;19.224;2022-10-16T04:54:16;99319.77;;;9.35;85.58
75247;BME280;63844;50.042;19.224;2022-10-16T04:56:42;99319.75;;;9.36;85.20
75247;BME280;63844;50.042;19.224;2022-10-16T04:59:17;99321.09;;;9.31;86.20
75247;BME280;63844;50.042;19.224;2022-10-16T05:01:44;99322.75;;;9.27;85.51
75247;BME280;63844;50.042;19.224;2022-10-16T05:04:11;99323.52;;;9.25;85.93
75247;BME280;63844;50.042;19.224;2022-10-16T05:06:38;99320.39;;;9.28;85.16
75247;BME280;63844;50.042;19.224;2022-10-16T05:09:05;99314.28;;;9.30;85.20
75247;BME280;63844;50.042;19.224;2022-10-16T05:11:31;99316.64;;;9.32;85.24
75247;BME280;63844;50.042;19.224;2022-10-16T05:13:58;99320.77;;;9.37;84.95
75247;BME280;63844;50.042;19.224;2022-10-16T05:16:24;99320.95;;;9.39;84.95
75247;BME280;63844;50.042;19.224;2022-10-16T05:18:51;99328.25;;;9.42;85.01
75247;BME280;63844;50.042;19.224;2022-10-16T05:21:18;99328.37;;;9.43;85.04
75247;BME280;63844;50.042;19.224;2022-10-16T05:23:45;99327.58;;;9.48;85.91
75247;BME280;63844;50.042;19.224;2022-10-16T05:26:11;99328.16;;;9.44;86.41
75247;BME280;63844;50.042;19.224;2022-10-16T05:28:37;99319.12;;;9.38;86.62
75247;BME280;63844;50.042;19.224;2022-10-16T05:31:08;99323.98;;;9.36;86.87
75247;BME280;63844;50.042;19.224;2022-10-16T05:33:35;99328.40;;;9.36;85.21
75247;BME280;63844;50.042;19.224;2022-10-16T05:36:07;99330.90;;;9.36;86.14
75247;BME280;63844;50.042;19.224;2022-10-16T05:38:35;99336.23;;;9.41;86.05
75247;BME280;63844;50.042;19.224;2022-10-16T05:41:03;99338.45;;;9.43;85.31
75247;BME280;63844;50.042;19.224;2022-10-16T05:43:30;99337.49;;;9.44;85.83
75247;BME280;63844;50.042;19.224;2022-10-16T05:46:00;99342.23;;;9.48;85.42
75247;BME280;63844;50.042;19.224;2022-10-16T05:48:28;99348.55;;;9.52;85.43
75247;BME280;63844;50.042;19.224;2022-10-16T05:51:08;99351.26;;;9.57;85.21
75247;BME280;63844;50.042;19.224;2022-10-16T05:53:37;99352.09;;;9.61;85.05
75247;BME280;63844;50.042;19.224;2022-10-16T05:56:05;99354.59;;;9.60;85.70
75247;BME280;63844;50.042;19.224;2022-10-16T05:58:34;99362.28;;;9.62;84.89
75247;BME280;63844;50.042;19.224;2022-10-16T06:01:07;99371.71;;;9.61;84.57
75247;BME280;63844;50.042;19.224;2022-10-16T06:03:34;99375.33;;;9.59;85.68
75247;BME280;63844;50.042;19.224;2022-10-16T06:06:27;99375.50;;;9.62;86.22
75247;BME280;63844;50.042;19.224;2022-10-16T06:08:55;99379.89;;;9.70;86.45
75247;BME280;63844;50.042;19.224;2022-10-16T06:11:27;99381.30;;;9.76;85.42
75247;BME280;63844;50.042;19.224;2022-10-16T06:13:56;99384.91;;;9.84;85.37
75247;BME280;63844;50.042;19.224;2022-10-16T06:16:24;99387.91;;;9.94;85.42
75247;BME280;63844;50.042;19.224;2022-10-16T06:18:52;99387.81;;;9.98;85.78
75247;BME280;63844;50.042;19.224;2022-10-16T06:21:20;99394.92;;;10.04;85.37
75247;BME280;63844;50.042;19.224;2022-10-16T06:23:48;99404.52;;;10.09;85.14
75247;BME280;63844;50.042;19.224;2022-10-16T06:26:18;99408.19;;;10.13;85.71
75247;BME280;63844;50.042;19.224;2022-10-16T06:28:46;99409.91;;;10.20;85.59
75247;BME280;63844;50.042;19.224;2022-10-16T06:31:13;99414.42;;;10.24;85.63
75247;BME280;63844;50.042;19.224;2022-10-16T06:33:40;99416.80;;;10.30;85.36
75247;BME280;63844;50.042;19.224;2022-10-16T06:36:13;99418.01;;;10.40;86.45
75247;BME280;63844;50.042;19.224;2022-10-16T06:38:41;99421.27;;;10.50;86.61
75247;BME280;63844;50.042;19.224;2022-10-16T06:41:11;99420.62;;;10.64;86.36
75247;BME280;63844;50.042;19.224;2022-10-16T06:43:38;99419.63;;;10.81;85.68
75247;BME280;63844;50.042;19.224;2022-10-16T06:46:07;99419.98;;;10.96;85.75
75247;BME280;63844;50.042;19.224;2022-10-16T06:48:34;99420.85;;;11.08;85.30
75247;BME280;63844;50.042;19.224;2022-10-16T06:51:06;99425.28;;;11.22;85.72
75247;BME280;63844;50.042;19.224;2022-10-16T06:53:34;99432.11;;;11.34;85.09
75247;BME280;63844;50.042;19.224;2022-10-16T06:56:16;99434.64;;;11.45;84.89
75247;BME280;63844;50.042;19.224;2022-10-16T06:58:43;99439.45;;;11.54;85.15
75247;BME280;63844;50.042;19.224;2022-10-16T07:01:11;99437.77;;;11.66;84.46
75247;BME280;63844;50.042;19.224;2022-10-16T07:03:39;99441.23;;;11.78;84.15
75247;BME280;63844;50.042;19.224;2022-10-16T07:06:08;99439.84;;;11.93;83.79
75247;BME280;63844;50.042;19.224;2022-10-16T07:08:36;99439.54;;;12.05;83.49
75247;BME280;63844;50.042;19.224;2022-10-16T07:11:05;99434.73;;;12.19;83.28
75247;BME280;63844;50.042;19.224;2022-10-16T07:13:33;99436.09;;;12.36;83.44
75247;BME280;63844;50.042;19.224;2022-10-16T07:16:11;99437.63;;;12.58;83.50
75247;BME280;63844;50.042;19.224;2022-10-16T07:18:38;99435.02;;;12.76;83.26
75247;BME280;63844;50.042;19.224;2022-10-16T07:21:10;99437.22;;;12.93;83.06
75247;BME280;63844;50.042;19.224;2022-10-16T07:23:37;99442.10;;;13.13;82.12
75247;BME280;63844;50.042;19.224;2022-10-16T07:26:04;99443.25;;;13.32;82.19
75247;BME280;63844;50.042;19.224;2022-10-16T07:28:32;99443.29;;;13.49;81.24
75247;BME280;63844;50.042;19.224;2022-10-16T07:31:07;99446.10;;;13.65;81.29
75247;BME280;63844;50.042;19.224;2022-10-16T07:33:34;99444.66;;;13.80;81.12
75247;BME280;63844;50.042;19.224;2022-10-16T07:36:01;99445.85;;;13.93;80.81
75247;BME280;63844;50.042;19.224;2022-10-16T07:38:28;99446.98;;;14.05;80.63
75247;BME280;63844;50.042;19.224;2022-10-16T07:40:58;99443.75;;;14.15;80.79
75247;BME280;63844;50.042;19.224;2022-10-16T07:43:26;99448.09;;;14.28;80.49
75247;BME280;63844;50.042;19.224;2022-10-16T07:45:53;99450.10;;;14.42;80.32
75247;BME280;63844;50.042;19.224;2022-10-16T07:48:22;99454.65;;;14.55;79.84
75247;BME280;63844;50.042;19.224;2022-10-16T07:50:49;99451.47;;;14.71;79.68
75247;BME280;63844;50.042;19.224;2022-10-16T07:53:15;99452.86;;;14.86;78.36
75247;BME280;63844;50.042;19.224;2022-10-16T07:55:42;99456.91;;;15.01;78.18
75247;BME280;63844;50.042;19.224;2022-10-16T07:58:08;99462.25;;;15.17;76.68
75247;BME280;63844;50.042;19.224;2022-10-16T08:00:36;99457.71;;;15.34;74.17
75247;BME280;63844;50.042;19.224;2022-10-16T08:03:03;99458.73;;;15.50;72.79
75247;BME280;63844;50.042;19.224;2022-10-16T08:05:31;99462.52;;;15.61;69.73
75247;BME280;63844;50.042;19.224;2022-10-16T08:07:58;99462.80;;;15.74;70.08
75247;BME280;63844;50.042;19.224;2022-10-16T08:10:26;99457.00;;;15.84;69.64
75247;BME280;63844;50.042;19.224;2022-10-16T08:12:53;99453.80;;;15.97;68.85
75247;BME280;63844;50.042;19.224;2022-10-16T08:15:20;99455.88;;;16.09;70.36
75247;BME280;63844;50.042;19.224;2022-10-16T08:17:58;99453.49;;;16.16;68.75
75247;BME280;63844;50.042;19.224;2022-10-16T08:20:25;99455.30;;;16.24;67.14
75247;BME280;63844;50.042;19.224;2022-10-16T08:22:52;99457.23;;;16.31;67.47
75247;BME280;63844;50.042;19.224;2022-10-16T08:25:21;99461.66;;;16.41;69.89
75247;BME280;63844;50.042;19.224;2022-10-16T08:27:48;99463.61;;;16.45;67.56
75247;BME280;63844;50.042;19.224;2022-10-16T08:30:15;99462.40;;;16.49;66.76
75247;BME280;63844;50.042;19.224;2022-10-16T08:32:42;99464.98;;;16.50;65.25
75247;BME280;63844;50.042;19.224;2022-10-16T08:35:10;99462.12;;;16.55;67.46
75247;BME280;63844;50.042;19.224;2022-10-16T08:37:37;99463.88;;;16.57;68.75
75247;BME280;63844;50.042;19.224;2022-10-16T08:40:06;99467.34;;;16.60;69.24
75247;BME280;63844;50.042;19.224;2022-10-16T08:42:47;99466.39;;;16.63;68.56
75247;BME280;63844;50.042;19.224;2022-10-16T08:45:30;99467.91;;;16.65;65.42
75247;BME280;63844;50.042;19.224;2022-10-16T08:50:32;99467.33;;;16.75;67.18
75247;BME280;63844;50.042;19.224;2022-10-16T08:53:03;99467.65;;;16.85;68.22
75247;BME280;63844;50.042;19.224;2022-10-16T08:55:38;99464.80;;;16.93;66.87
75247;BME280;63844;50.042;19.224;2022-10-16T08:58:12;99464.61;;;17.04;67.11
75247;BME280;63844;50.042;19.224;2022-10-16T09:00:40;99463.91;;;17.16;67.30
75247;BME280;63844;50.042;19.224;2022-10-16T09:03:16;99464.02;;;17.32;64.22
75247;BME280;63844;50.042;19.224;2022-10-16T09:09:23;99459.48;;;17.65;62.57
75247;BME280;63844;50.042;19.224;2022-10-16T09:14:43;99463.46;;;17.95;65.21
75247;BME280;63844;50.042;19.224;2022-10-16T09:20:19;99461.66;;;18.11;63.12
75247;BME280;63844;50.042;19.224;2022-10-16T09:22:52;99467.45;;;18.17;61.89
75247;BME280;63844;50.042;19.224;2022-10-16T09:25:21;99471.20;;;18.25;62.50
75247;BME280;63844;50.042;19.224;2022-10-16T09:27:49;99469.47;;;18.32;61.26
75247;BME280;63844;50.042;19.224;2022-10-16T09:30:20;99467.11;;;18.40;60.18
75247;BME280;63844;50.042;19.224;2022-10-16T09:32:49;99473.57;;;18.50;61.08
75247;BME280;63844;50.042;19.224;2022-10-16T09:35:24;99470.26;;;18.57;61.04
75247;BME280;63844;50.042;19.224;2022-10-16T09:37:54;99473.73;;;18.60;61.41
75247;BME280;63844;50.042;19.224;2022-10-16T09:40:41;99471.14;;;18.57;59.28
75247;BME280;63844;50.042;19.224;2022-10-16T09:46:01;99474.79;;;18.64;60.62
75247;BME280;63844;50.042;19.224;2022-10-16T09:51:13;99480.23;;;18.91;62.26
75247;BME280;63844;50.042;19.224;2022-10-16T09:53:44;99477.78;;;19.06;62.28
75247;BME280;63844;50.042;19.224;2022-10-16T09:56:21;99478.16;;;19.17;61.73
75247;BME280;63844;50.042;19.224;2022-10-16T09:58:56;99480.41;;;19.25;61.17
75247;BME280;63844;50.042;19.224;2022-10-16T10:01:50;99483.92;;;19.38;61.59
75247;BME280;63844;50.042;19.224;2022-10-16T10:04:18;99484.23;;;19.44;57.67
75247;BME280;63844;50.042;19.224;2022-10-16T10:06:54;99488.97;;;19.57;57.60
75247;BME280;63844;50.042;19.224;2022-10-16T10:09:24;99488.34;;;19.67;57.74
75247;BME280;63844;50.042;19.224;2022-10-16T10:12:02;99486.06;;;19.74;55.40
75247;BME280;63844;50.042;19.224;2022-10-16T10:14:40;99486.73;;;19.84;56.23
75247;BME280;63844;50.042;19.224;2022-10-16T10:17:13;99486.80;;;19.87;56.02
75247;BME280;63844;50.042;19.224;2022-10-16T10:22:18;99485.92;;;19.85;54.83
75247;BME280;63844;50.042;19.224;2022-10-16T10:25:07;99484.66;;;19.83;54.87
75247;BME280;63844;50.042;19.224;2022-10-16T10:27:57;99488.11;;;19.84;54.67
75247;BME280;63844;50.042;19.224;2022-10-16T10:33:30;99485.41;;;19.71;54.56
75247;BME280;63844;50.042;19.224;2022-10-16T10:36:19;99484.12;;;19.68;54.51
75247;BME280;63844;50.042;19.224;2022-10-16T10:39:06;99496.39;;;19.65;54.73
75247;BME280;63844;50.042;19.224;2022-10-16T10:42:19;99492.77;;;19.53;55.40
75247;BME280;63844;50.042;19.224;2022-10-16T10:47:01;99493.23;;;19.38;55.53
75247;BME280;63844;50.042;19.224;2022-10-16T10:49:36;99498.73;;;19.35;56.36
75247;BME280;63844;50.042;19.224;2022-10-16T10:52:13;99497.92;;;19.31;56.09
75247;BME280;63844;50.042;19.224;2022-10-16T10:55:33;99500.27;;;19.22;56.34
75247;BME280;63844;50.042;19.224;2022-10-16T11:04:24;99494.08;;;19.16;56.90
75247;BME280;63844;50.042;19.224;2022-10-16T11:06:59;99495.44;;;19.17;57.33
75247;BME280;63844;50.042;19.224;2022-10-16T11:09:33;99493.25;;;19.14;56.49
75247;BME280;63844;50.042;19.224;2022-10-16T11:12:06;99494.73;;;19.15;56.55
75247;BME280;63844;50.042;19.224;2022-10-16T11:14:46;99494.73;;;19.15;56.62
75247;BME280;63844;50.042;19.224;2022-10-16T11:17:38;99492.66;;;19.16;56.70
75247;BME280;63844;50.042;19.224;2022-10-16T11:20:12;99493.27;;;19.17;57.50
75247;BME280;63844;50.042;19.224;2022-10-16T11:22:45;99492.10;;;19.16;56.75
75247;BME280;63844;50.042;19.224;2022-10-16T11:25:18;99491.53;;;19.18;56.55
75247;BME280;63844;50.042;19.224;2022-10-16T11:30:31;99488.29;;;19.22;55.80
75247;BME280;63844;50.042;19.224;2022-10-16T11:33:25;99496.05;;;19.25;55.78
75247;BME280;63844;50.042;19.224;2022-10-16T11:36:00;99495.55;;;19.30;55.45
75247;BME280;63844;50.042;19.224;2022-10-16T11:41:00;99494.15;;;19.42;55.07
75247;BME280;63844;50.042;19.224;2022-10-16T11:43:39;99491.27;;;19.47;55.10
75247;BME280;63844;50.042;19.224;2022-10-16T11:46:12;99490.45;;;19.56;55.64
75247;BME280;63844;50.042;19.224;2022-10-16T11:48:54;99488.81;;;19.60;55.03
75247;BME280;63844;50.042;19.224;2022-10-16T11:51:39;99492.73;;;19.64;55.49
75247;BME280;63844;50.042;19.224;2022-10-16T11:54:45;99487.28;;;19.71;55.10
75247;BME280;63844;50.042;19.224;2022-10-16T11:57:21;99481.43;;;19.76;55.59
75247;BME280;63844;50.042;19.224;2022-10-16T11:59:57;99482.95;;;19.74;55.20
75247;BME280;63844;50.042;19.224;2022-10-16T12:02:50;99488.19;;;19.78;55.40
75247;BME280;63844;50.042;19.224;2022-10-16T12:08:13;99482.48;;;19.74;54.79
75247;BME280;63844;50.042;19.224;2022-10-16T12:10:43;99480.23;;;19.69;54.79
75247;BME280;63844;50.042;19.224;2022-10-16T12:13:36;99480.86;;;19.66;54.93
75247;BME280;63844;50.042;19.224;2022-10-16T12:16:20;99488.29;;;19.64;54.79
75247;BME280;63844;50.042;19.224;2022-10-16T12:18:47;99488.23;;;19.59;54.81
75247;BME280;63844;50.042;19.224;2022-10-16T12:21:16;99492.62;;;19.62;54.73
75247;BME280;63844;50.042;19.224;2022-10-16T12:23:53;99489.19;;;19.77;54.69
75247;BME280;63844;50.042;19.224;2022-10-16T12:26:31;99488.96;;;19.98;54.18
75247;BME280;63844;50.042;19.224;2022-10-16T12:29:14;99491.15;;;20.14;53.90
75247;BME280;63844;50.042;19.224;2022-10-16T12:31:49;99498.78;;;20.33;53.52
75247;BME280;63844;50.042;19.224;2022-10-16T12:34:29;99495.59;;;20.40;53.40
75247;BME280;63844;50.042;19.224;2022-10-16T12:37:53;99498.06;;;20.35;53.37
75247;BME280;63844;50.042;19.224;2022-10-16T12:42:50;99505.56;;;20.28;53.07
75247;BME280;63844;50.042;19.224;2022-10-16T12:45:32;99509.41;;;20.28;53.60
75247;BME280;63844;50.042;19.224;2022-10-16T12:48:02;99511.60;;;20.20;53.73
75247;BME280;63844;50.042;19.224;2022-10-16T12:50:33;99512.92;;;20.10;53.42
75247;BME280;63844;50.042;19.224;2022-10-16T12:53:01;99512.00;;;20.11;53.72
75247;BME280;63844;50.042;19.224;2022-10-16T12:55:35;99517.71;;;20.15;53.75
75247;BME280;63844;50.042;19.224;2022-10-16T12:58:18;99520.63;;;20.16;53.47
75247;BME280;63844;50.042;19.224;2022-10-16T13:04:07;99520.15;;;20.06;53.29
75247;BME280;63844;50.042;19.224;2022-10-16T13:06:53;99518.61;;;20.09;53.81
75247;BME280;63844;50.042;19.224;2022-10-16T13:12:53;99519.94;;;20.03;54.38
75247;BME280;63844;50.042;19.224;2022-10-16T13:18:30;99530.34;;;19.93;54.16
75247;BME280;63844;50.042;19.224;2022-10-16T13:21:30;99537.45;;;19.81;53.93
75247;BME280;63844;50.042;19.224;2022-10-16T13:24:25;99535.77;;;19.80;54.38
75247;BME280;63844;50.042;19.224;2022-10-16T13:29:31;99542.79;;;19.78;54.62
75247;BME280;63844;50.042;19.224;2022-10-16T13:32:00;99544.11;;;19.74;55.02
75247;BME280;63844;50.042;19.224;2022-10-16T13:34:27;99548.54;;;19.69;55.15
75247;BME280;63844;50.042;19.224;2022-10-16T13:36:55;99545.73;;;19.66;55.03
75247;BME280;63844;50.042;19.224;2022-10-16T13:39:29;99545.84;;;19.63;55.07
75247;BME280;63844;50.042;19.224;2022-10-16T13:44:35;99548.34;;;19.65;55.21
75247;BME280;63844;50.042;19.224;2022-10-16T13:47:03;99546.33;;;19.65;54.94
75247;BME280;63844;50.042;19.224;2022-10-16T13:49:29;99543.73;;;19.68;55.29
75247;BME280;63844;50.042;19.224;2022-10-16T13:51:57;99546.15;;;19.67;55.78
75247;BME280;63844;50.042;19.224;2022-10-16T13:54:25;99543.30;;;19.67;55.26
75247;BME280;63844;50.042;19.224;2022-10-16T13:56:52;99545.88;;;19.70;55.31
75247;BME280;63844;50.042;19.224;2022-10-16T13:59:27;99547.86;;;19.66;55.16
75247;BME280;63844;50.042;19.224;2022-10-16T14:01:59;99551.47;;;19.66;55.64
75247;BME280;63844;50.042;19.224;2022-10-16T14:04:31;99551.54;;;19.73;55.63
75247;BME280;63844;50.042;19.224;2022-10-16T14:06:58;99546.77;;;19.76;55.49
75247;BME280;63844;50.042;19.224;2022-10-16T14:09:27;99542.23;;;19.80;55.41
75247;BME280;63844;50.042;19.224;2022-10-16T14:12:08;99534.83;;;19.94;55.78
75247;BME280;63844;50.042;19.224;2022-10-16T14:14:44;99530.54;;;20.23;54.47
75247;BME280;63844;50.042;19.224;2022-10-16T14:17:16;99524.99;;;20.76;54.28
75247;BME280;63844;50.042;19.224;2022-10-16T14:19:48;99522.16;;;21.16;52.79